Time;durP1;ratioP1;P1;durP2;ratioP2;P2;SDS_P1;SDS_P2;PMS_P1;PMS_P2;Temp;Humidity;BMP_temperature;BMP_pressure;BME280_temperature;BME280_humidity;BME280_pressure;Samples;Min_cycle;Max_cycle;Signal;HPM_P1;HPM_P2
2023/01/17 00:02:13;;;;;;;1.93;0.40;;;4.00;47.10;;;;;;5036970;28;20312;-59
2023/01/17 00:10:20;;;;;;;0.40;0.30;;;3.60;50.10;;;;;;5036727;28;20721;-61
2023/01/17 00:12:52;;;;;;;2.07;0.43;;;3.60;99.90;;;;;;5037925;28;20216;-59
2023/01/17 00:15:21;;;;;;;0.83;0.30;;;3.40;69.00;;;;;;5037412;28;20216;-59
2023/01/17 00:17:49;;;;;;;1.00;0.47;;;3.40;99.90;;;;;;5036911;28;20204;-59
2023/01/17 00:26:01;;;;;;;1.47;0.27;;;3.20;99.90;;;;;;5038507;28;20213;-59
2023/01/17 01:36:02;;;;;;;1.53;0.30;;;3.30;99.90;;;;;;5040709;28;20291;-59
2023/01/17 01:38:31;;;;;;;4.80;0.67;;;3.30;99.90;;;;;;5040702;28;20292;-59
2023/01/17 01:40:57;;;;;;;2.37;0.50;;;3.40;99.90;;;;;;5039463;28;20701;-60
2023/01/17 01:43:49;;;;;;;0.73;0.37;;;3.50;99.90;;;;;;5041721;28;20208;-59
2023/01/17 01:46:27;;;;;;;1.13;0.40;;;3.50;99.90;;;;;;5039367;28;20310;-59
2023/01/17 01:49:04;;;;;;;1.07;0.40;;;3.40;99.90;;;;;;5039885;28;20207;-60
2023/01/17 01:51:38;;;;;;;0.80;0.27;;;3.20;99.90;;;;;;5040365;28;20534;-59
2023/01/17 01:54:10;;;;;;;0.87;0.40;;;3.00;99.90;;;;;;5040913;28;20288;-59
2023/01/17 01:56:38;;;;;;;2.03;0.20;;;2.90;99.90;;;;;;5040624;28;20205;-59
2023/01/17 01:59:08;;;;;;;1.33;0.73;;;2.90;99.90;;;;;;5040321;28;20565;-58
2023/01/17 02:01:36;;;;;;;1.33;0.20;;;2.90;99.90;;;;;;5040098;28;20321;-59
2023/01/17 02:04:08;;;;;;;2.93;0.40;;;2.80;99.90;;;;;;5039985;28;20227;-58
2023/01/17 02:06:46;;;;;;;1.67;0.40;;;2.80;99.90;;;;;;5037047;28;20250;-58
2023/01/17 02:09:15;;;;;;;1.57;0.40;;;2.70;99.90;;;;;;5030826;28;20287;-58
2023/01/17 02:11:44;;;;;;;1.60;0.50;;;2.80;99.90;;;;;;5040132;28;20208;-58
2023/01/17 02:14:16;;;;;;;3.03;0.80;;;2.90;99.90;;;;;;5039640;28;20204;-59
2023/01/17 02:17:11;;;;;;;0.97;0.70;;;2.70;99.90;;;;;;5038876;28;20287;-59
2023/01/17 02:20:13;;;;;;;4.70;0.80;;;2.70;99.90;;;;;;5041806;28;20644;-59
2023/01/17 02:23:11;;;;;;;0.93;0.60;;;2.80;99.90;;;;;;5039260;28;20286;-59
2023/01/17 02:25:53;;;;;;;4.10;0.83;;;2.70;99.90;;;;;;5024060;28;20209;-60
2023/01/17 02:28:44;;;;;;;0.73;0.63;;;2.60;99.90;;;;;;5039780;28;20251;-59
2023/01/17 02:31:19;;;;;;;2.90;0.53;;;2.60;99.90;;;;;;5037977;28;20201;-58
2023/01/17 02:34:23;;;;;;;1.90;0.40;;;2.60;99.90;;;;;;5036317;28;20203;-59
2023/01/17 02:36:59;;;;;;;2.27;0.60;;;2.80;99.90;;;;;;5038335;28;20563;-59
2023/01/17 02:39:33;;;;;;;1.90;0.40;;;2.90;99.90;;;;;;5041184;28;20196;-60
2023/01/17 02:42:05;;;;;;;1.90;0.30;;;2.80;99.90;;;;;;5040582;28;20204;-59
2023/01/17 02:44:42;;;;;;;1.63;0.57;;;2.70;99.90;;;;;;5037749;28;20267;-59
2023/01/17 02:47:38;;;;;;;3.93;0.50;;;2.90;99.90;;;;;;5039412;28;20212;-59
2023/01/17 02:50:19;;;;;;;2.87;0.30;;;2.70;99.90;;;;;;5030994;28;20243;-59
2023/01/17 02:53:02;;;;;;;1.90;0.33;;;2.70;99.90;;;;;;5051915;28;20208;-60
2023/01/17 02:55:49;;;;;;;0.90;0.40;;;2.50;99.90;;;;;;5037200;28;20214;-61
2023/01/17 02:58:52;;;;;;;1.90;0.30;;;2.40;99.90;;;;;;5036565;28;20232;-59
2023/01/17 03:01:28;;;;;;;3.93;0.50;;;2.30;99.90;;;;;;5020079;28;20212;-59
2023/01/17 03:04:05;;;;;;;2.20;0.43;;;2.40;99.90;;;;;;5035880;28;20206;-61
2023/01/17 03:06:57;;;;;;;1.20;0.50;;;2.30;99.90;;;;;;5031772;28;20218;-60
2023/01/17 03:09:25;;;;;;;2.80;0.70;;;2.20;99.90;;;;;;5034858;28;20533;-60
2023/01/17 03:11:52;;;;;;;1.47;0.50;;;2.10;99.90;;;;;;5035179;28;20200;-60
2023/01/17 03:14:19;;;;;;;0.80;0.50;;;2.10;99.90;;;;;;5030851;28;20192;-60
2023/01/17 03:16:46;;;;;;;1.90;0.63;;;2.00;99.90;;;;;;5023486;28;20204;-60
2023/01/17 03:19:14;;;;;;;0.70;0.57;;;2.00;99.90;;;;;;5030226;28;20310;-59
2023/01/17 03:21:41;;;;;;;0.73;0.73;;;2.00;99.90;;;;;;5035637;28;20290;-60
2023/01/17 03:24:08;;;;;;;0.50;0.50;;;1.90;99.90;;;;;;5039222;28;20264;-59
2023/01/17 03:26:35;;;;;;;3.23;0.80;;;1.80;99.90;;;;;;5037821;28;20226;-59
2023/01/17 03:29:02;;;;;;;2.40;1.00;;;1.90;99.90;;;;;;5037602;28;20227;-59
2023/01/17 03:31:29;;;;;;;2.50;0.67;;;1.90;99.90;;;;;;5038581;28;20222;-59
2023/01/17 03:33:55;;;;;;;2.00;0.50;;;1.90;99.90;;;;;;5040337;28;20264;-60
2023/01/17 03:36:22;;;;;;;1.20;0.60;;;2.00;99.90;;;;;;5035869;28;20715;-60
2023/01/17 03:38:49;;;;;;;0.93;0.57;;;2.10;99.90;;;;;;5030896;28;20204;-59
2023/01/17 03:41:15;;;;;;;1.00;0.60;;;2.30;99.90;;;;;;5027540;28;20212;-59
2023/01/17 03:43:42;;;;;;;1.77;0.50;;;2.10;99.90;;;;;;5030694;28;20665;-59
2023/01/17 03:46:21;;;;;;;5.47;0.67;;;2.10;99.90;;;;;;5029449;28;20200;-61
2023/01/17 03:48:49;;;;;;;2.50;0.63;;;2.20;99.90;;;;;;5017493;28;20197;-63
2023/01/17 03:51:16;;;;;;;1.63;0.50;;;2.10;99.90;;;;;;5028378;28;20200;-59
2023/01/17 03:53:45;;;;;;;2.20;0.60;;;2.10;99.90;;;;;;5026986;28;20564;-63
2023/01/17 03:56:13;;;;;;;1.10;0.50;;;2.20;99.90;;;;;;5030090;28;20231;-59
2023/01/17 03:58:40;;;;;;;1.40;0.70;;;2.10;99.90;;;;;;5027548;28;20711;-59
2023/01/17 04:01:07;;;;;;;0.93;0.40;;;1.90;99.90;;;;;;5028617;28;20189;-59
2023/01/17 04:03:34;;;;;;;3.93;0.70;;;1.90;99.90;;;;;;5029498;28;20197;-59
2023/01/17 04:06:01;;;;;;;3.63;0.50;;;2.00;99.90;;;;;;5025116;28;20200;-58
2023/01/17 04:08:28;;;;;;;4.53;0.40;;;1.90;99.90;;;;;;5033875;28;22284;-59
2023/01/17 04:10:55;;;;;;;2.07;0.50;;;1.90;99.90;;;;;;5016297;28;20220;-59
2023/01/17 04:13:22;;;;;;;0.97;0.43;;;1.90;99.90;;;;;;5015948;28;20307;-59
2023/01/17 04:15:50;;;;;;;3.37;0.50;;;1.80;99.90;;;;;;5014073;28;20679;-61
2023/01/17 04:18:19;;;;;;;1.47;0.33;;;1.80;99.90;;;;;;5031127;28;20588;-59
2023/01/17 04:20:46;;;;;;;3.23;0.50;;;1.80;99.90;;;;;;5029096;28;20290;-59
2023/01/17 04:23:13;;;;;;;1.13;0.40;;;1.80;99.90;;;;;;5027848;28;20233;-63
2023/01/17 04:25:39;;;;;;;2.67;0.40;;;1.80;99.90;;;;;;5027697;28;20634;-61
2023/01/17 04:28:07;;;;;;;2.93;0.60;;;1.80;99.90;;;;;;5024810;28;20663;-60
2023/01/17 04:30:33;;;;;;;1.73;0.93;;;1.80;99.90;;;;;;5026709;28;20203;-63
2023/01/17 04:33:00;;;;;;;1.23;0.47;;;1.80;99.90;;;;;;5026773;28;20201;-59
2023/01/17 04:35:32;;;;;;;0.60;0.40;;;1.70;99.90;;;;;;5027369;28;20695;-60
2023/01/17 04:37:59;;;;;;;1.20;0.90;;;1.80;99.90;;;;;;5029009;28;20606;-59
2023/01/17 04:40:26;;;;;;;5.20;0.77;;;1.70;99.90;;;;;;5027847;28;20197;-59
2023/01/17 04:42:53;;;;;;;2.03;0.47;;;1.70;99.90;;;;;;5028697;28;20220;-59
2023/01/17 04:45:20;;;;;;;3.27;0.77;;;1.70;99.90;;;;;;5024107;28;20822;-63
2023/01/17 04:47:46;;;;;;;0.93;0.50;;;1.60;99.90;;;;;;5027884;28;20660;-59
2023/01/17 04:50:13;;;;;;;2.47;0.53;;;1.60;99.90;;;;;;5028113;28;20299;-60
2023/01/17 04:52:40;;;;;;;1.37;0.30;;;1.60;99.90;;;;;;5028922;28;20201;-59
2023/01/17 04:55:07;;;;;;;4.90;0.70;;;1.60;99.90;;;;;;5025981;28;20287;-59
2023/01/17 04:57:34;;;;;;;2.37;0.80;;;1.50;99.90;;;;;;5030061;28;20579;-61
2023/01/17 05:00:02;;;;;;;1.67;0.77;;;1.50;99.90;;;;;;5030814;28;20615;-59
2023/01/17 05:02:29;;;;;;;1.53;0.50;;;1.50;99.90;;;;;;5033579;28;20232;-59
2023/01/17 05:04:55;;;;;;;3.13;0.70;;;1.50;99.90;;;;;;5037818;28;20219;-59
2023/01/17 05:07:22;;;;;;;1.63;0.63;;;1.60;99.90;;;;;;5035006;28;20236;-58
2023/01/17 05:09:49;;;;;;;1.50;0.83;;;1.50;99.90;;;;;;5035689;28;20224;-60
2023/01/17 05:12:15;;;;;;;5.03;1.00;;;1.50;99.90;;;;;;5037277;28;20215;-58
2023/01/17 05:14:42;;;;;;;7.33;0.80;;;1.50;99.90;;;;;;5032810;28;20196;-58
2023/01/17 05:17:10;;;;;;;3.67;1.13;;;1.50;99.90;;;;;;5032216;28;20231;-60
2023/01/17 05:19:37;;;;;;;2.87;0.67;;;1.50;99.90;;;;;;5035843;28;20519;-58
2023/01/17 05:22:13;;;;;;;2.03;0.97;;;1.40;99.90;;;;;;5035694;28;20252;-59
2023/01/17 05:24:45;;;;;;;5.50;0.93;;;1.40;99.90;;;;;;5037397;28;20200;-58
2023/01/17 05:27:12;;;;;;;3.43;1.27;;;1.50;99.90;;;;;;5036800;28;20216;-58
2023/01/17 05:29:40;;;;;;;3.63;1.00;;;1.40;99.90;;;;;;5036842;28;20200;-58
2023/01/17 05:32:07;;;;;;;1.60;1.20;;;1.50;99.90;;;;;;5035780;28;20239;-60
2023/01/17 05:34:33;;;;;;;4.97;1.43;;;1.50;99.90;;;;;;5036179;28;20231;-60
2023/01/17 05:37:00;;;;;;;5.40;1.23;;;1.50;99.90;;;;;;5035975;28;20240;-59
2023/01/17 05:39:29;;;;;;;3.10;1.53;;;1.40;99.90;;;;;;5036684;28;20755;-59
2023/01/17 05:41:57;;;;;;;9.07;2.17;;;1.40;99.90;;;;;;5037518;28;20287;-59
2023/01/17 05:44:23;;;;;;;6.80;2.17;;;1.50;99.90;;;;;;5036081;28;20779;-59
2023/01/17 05:46:50;;;;;;;11.37;2.10;;;1.50;99.90;;;;;;5035371;28;20299;-59
2023/01/17 05:49:17;;;;;;;6.37;2.00;;;1.50;99.90;;;;;;5036621;28;20576;-59
2023/01/17 05:51:43;;;;;;;4.90;1.87;;;1.50;99.90;;;;;;5038114;28;20204;-59
2023/01/17 05:54:10;;;;;;;6.70;2.50;;;1.60;99.90;;;;;;5036199;28;20283;-59
2023/01/17 05:56:37;;;;;;;6.30;2.20;;;1.60;99.90;;;;;;5036142;28;20207;-59
2023/01/17 05:59:04;;;;;;;2.90;2.23;;;1.60;99.90;;;;;;5036821;28;20316;-59
2023/01/17 06:01:31;;;;;;;6.67;2.43;;;1.60;99.90;;;;;;5031945;28;20761;-60
2023/01/17 06:03:57;;;;;;;6.37;2.80;;;1.50;99.90;;;;;;5028765;28;20198;-60
2023/01/17 06:06:24;;;;;;;5.83;3.00;;;1.50;99.90;;;;;;5024267;28;20197;-64
2023/01/17 06:08:51;;;;;;;6.27;2.70;;;1.50;99.90;;;;;;5034539;28;20322;-59
2023/01/17 06:11:18;;;;;;;6.47;3.80;;;1.50;99.90;;;;;;5031318;28;20196;-60
2023/01/17 06:13:46;;;;;;;8.10;3.43;;;1.50;99.90;;;;;;5040293;28;20203;-60
2023/01/17 06:16:13;;;;;;;13.37;6.33;;;1.50;99.90;;;;;;5034506;28;20513;-59
2023/01/17 06:18:40;;;;;;;5.07;3.70;;;1.50;99.90;;;;;;5036128;28;20604;-60
2023/01/17 06:21:07;;;;;;;8.03;3.47;;;1.50;99.90;;;;;;5037567;28;20220;-60
2023/01/17 06:23:33;;;;;;;8.67;3.17;;;1.40;99.90;;;;;;5039914;28;20292;-59
2023/01/17 06:26:02;;;;;;;7.20;3.80;;;1.40;99.90;;;;;;5038307;28;20204;-59
2023/01/17 06:28:29;;;;;;;9.63;3.77;;;1.40;99.90;;;;;;5040245;28;20228;-59
2023/01/17 06:30:56;;;;;;;6.27;3.50;;;1.40;99.90;;;;;;5036525;28;20663;-59
2023/01/17 06:33:23;;;;;;;8.80;4.07;;;1.40;99.90;;;;;;5036903;28;20308;-59
2023/01/17 06:35:51;;;;;;;7.80;3.80;;;1.40;99.90;;;;;;5038104;28;20322;-61
2023/01/17 06:38:19;;;;;;;8.10;5.57;;;1.40;99.90;;;;;;5036208;28;20208;-59
2023/01/17 06:40:45;;;;;;;9.10;4.67;;;1.30;99.90;;;;;;5040462;28;20219;-59
2023/01/17 06:43:12;;;;;;;6.60;4.27;;;1.40;99.90;;;;;;5039249;28;20664;-65
2023/01/17 06:45:39;;;;;;;8.90;4.37;;;1.30;99.90;;;;;;5039171;28;20339;-60
2023/01/17 06:48:06;;;;;;;8.83;4.13;;;1.40;99.90;;;;;;5036688;28;20306;-60
2023/01/17 06:50:33;;;;;;;9.03;4.97;;;1.40;99.90;;;;;;5039912;28;20204;-60
2023/01/17 06:53:03;;;;;;;8.17;4.60;;;1.70;99.90;;;;;;5038384;28;20207;-59
2023/01/17 06:55:32;;;;;;;9.53;5.40;;;1.60;99.90;;;;;;5029498;28;20200;-59
2023/01/17 06:58:01;;;;;;;14.03;6.33;;;1.50;99.90;;;;;;5026797;28;20281;-59
2023/01/17 07:00:29;;;;;;;9.80;7.00;;;1.40;99.90;;;;;;5018823;28;20212;-60
2023/01/17 07:02:56;;;;;;;10.07;5.90;;;1.40;99.90;;;;;;5039664;28;20577;-59
2023/01/17 07:05:23;;;;;;;7.77;5.40;;;1.20;99.90;;;;;;5034969;28;20200;-60
2023/01/17 07:07:50;;;;;;;12.53;6.40;;;1.20;99.90;;;;;;4666435;28;9999676;-60
2023/01/17 07:10:17;;;;;;;12.73;6.67;;;1.20;99.90;;;;;;5024179;28;20403;-61
2023/01/17 07:12:44;;;;;;;11.37;6.50;;;1.20;99.90;;;;;;5028899;28;20708;-59
2023/01/17 07:15:11;;;;;;;11.63;6.43;;;1.20;99.90;;;;;;5031308;28;20204;-59
2023/01/17 07:17:38;;;;;;;11.00;6.47;;;1.20;99.90;;;;;;5034276;28;20583;-60
2023/01/17 07:20:05;;;;;;;14.33;6.27;;;1.00;99.90;;;;;;5029273;28;20651;-59
2023/01/17 07:22:32;;;;;;;7.83;5.40;;;1.00;99.90;;;;;;5027030;28;20739;-60
2023/01/17 07:24:59;;;;;;;11.57;6.03;;;1.00;99.90;;;;;;5030201;28;20231;-58
2023/01/17 07:27:29;;;;;;;11.53;6.20;;;0.90;99.90;;;;;;5026595;28;20216;-59
2023/01/17 07:29:56;;;;;;;8.10;5.60;;;0.90;99.90;;;;;;5022463;28;20832;-60
2023/01/17 07:32:25;;;;;;;10.57;6.43;;;0.90;99.90;;;;;;5019932;28;20267;-63
2023/01/17 07:34:53;;;;;;;11.20;6.30;;;0.90;99.90;;;;;;5023711;28;20673;-59
2023/01/17 07:37:19;;;;;;;11.97;7.23;;;0.90;99.90;;;;;;5020708;28;20319;-59
2023/01/17 07:39:46;;;;;;;10.33;6.30;;;1.00;99.90;;;;;;5019323;28;20714;-60
2023/01/17 07:42:13;;;;;;;11.07;6.97;;;1.00;99.90;;;;;;5019119;28;22391;-58
2023/01/17 07:44:42;;;;;;;7.83;5.77;;;1.00;99.90;;;;;;5020221;28;20756;-59
2023/01/17 07:47:10;;;;;;;13.57;6.70;;;0.90;99.90;;;;;;5020891;28;20335;-60
2023/01/17 07:49:37;;;;;;;15.57;6.43;;;0.90;99.90;;;;;;5021833;28;20201;-60
2023/01/17 07:52:07;;;;;;;14.03;6.27;;;0.80;99.90;;;;;;5016621;28;20201;-59
2023/01/17 07:54:34;;;;;;;9.00;6.00;;;0.80;99.90;;;;;;5040795;28;20230;-59
2023/01/17 07:57:02;;;;;;;12.57;6.60;;;0.90;99.90;;;;;;5016999;28;20562;-59
2023/01/17 07:59:29;;;;;;;10.93;7.00;;;0.90;99.90;;;;;;5018056;28;20293;-59
2023/01/17 08:01:55;;;;;;;12.27;6.33;;;0.90;99.90;;;;;;5018602;28;20596;-61
2023/01/17 08:04:27;;;;;;;7.47;5.70;;;1.00;99.90;;;;;;5019072;28;20284;-60
2023/01/17 08:06:54;;;;;;;12.67;5.90;;;0.90;99.90;;;;;;5028999;28;20207;-60
2023/01/17 08:09:21;;;;;;;10.27;5.60;;;0.90;99.90;;;;;;5022859;28;20216;-59
2023/01/17 08:11:48;;;;;;;9.30;6.70;;;1.10;99.90;;;;;;5023357;28;20294;-59
2023/01/17 08:14:14;;;;;;;10.20;6.97;;;1.00;99.90;;;;;;5031051;28;20210;-58
2023/01/17 08:16:41;;;;;;;11.67;6.70;;;1.00;99.90;;;;;;5046145;28;20283;-62
2023/01/17 08:19:09;;;;;;;11.77;5.33;;;1.10;99.90;;;;;;5023606;28;20216;-59
2023/01/17 08:21:36;;;;;;;11.87;6.17;;;1.10;99.90;;;;;;5029131;28;20273;-59
2023/01/17 08:24:03;;;;;;;14.57;5.80;;;1.00;99.90;;;;;;5030315;28;20593;-59
2023/01/17 08:26:30;;;;;;;14.43;5.43;;;1.10;99.90;;;;;;5028951;28;20215;-59
2023/01/17 08:29:01;;;;;;;9.03;5.53;;;1.10;99.90;;;;;;5029103;28;20216;-61
2023/01/17 08:31:33;;;;;;;12.33;5.60;;;1.10;99.90;;;;;;5027442;28;20198;-61
2023/01/17 08:34:00;;;;;;;9.40;5.30;;;1.10;99.90;;;;;;5031489;28;20616;-59
2023/01/17 08:36:27;;;;;;;8.93;6.00;;;1.20;99.90;;;;;;5032140;28;20702;-59
2023/01/17 08:38:54;;;;;;;9.27;5.47;;;1.20;99.90;;;;;;5030028;28;20236;-59
2023/01/17 08:41:22;;;;;;;8.87;5.40;;;1.20;99.90;;;;;;5032306;28;20549;-59
2023/01/17 08:43:50;;;;;;;9.00;5.67;;;1.20;99.90;;;;;;5032850;28;20286;-59
2023/01/17 08:46:18;;;;;;;11.67;5.80;;;1.30;99.90;;;;;;5027378;28;20277;-59
2023/01/17 08:48:45;;;;;;;10.67;6.00;;;1.30;99.90;;;;;;5032195;28;20213;-59
2023/01/17 08:51:12;;;;;;;8.37;5.47;;;1.40;99.90;;;;;;5034503;28;20615;-60
2023/01/17 08:53:39;;;;;;;9.93;5.70;;;1.50;99.90;;;;;;5030307;28;20307;-60
2023/01/17 08:56:06;;;;;;;9.10;5.80;;;1.60;99.90;;;;;;5032709;28;20211;-60
2023/01/17 08:58:34;;;;;;;7.80;5.20;;;1.70;99.90;;;;;;5029587;28;20551;-59
2023/01/17 09:01:03;;;;;;;17.67;6.07;;;1.50;99.90;;;;;;5025394;28;20543;-59
2023/01/17 09:03:31;;;;;;;12.90;5.70;;;1.50;99.90;;;;;;5032279;28;20423;-59
2023/01/17 09:06:02;;;;;;;9.30;6.00;;;1.40;99.90;;;;;;5029901;28;20200;-60
2023/01/17 09:08:29;;;;;;;8.57;5.90;;;1.60;99.90;;;;;;5030778;28;20223;-59
2023/01/17 09:10:56;;;;;;;10.20;5.43;;;1.80;99.90;;;;;;5026679;28;20200;-59
2023/01/17 09:13:23;;;;;;;10.33;5.47;;;1.90;99.90;;;;;;5030157;28;20258;-59
2023/01/17 09:15:49;;;;;;;10.10;5.40;;;2.00;99.90;;;;;;5028550;28;20284;-60
2023/01/17 09:18:16;;;;;;;8.37;5.47;;;1.90;99.90;;;;;;5030040;28;20200;-59
2023/01/17 09:20:43;;;;;;;13.23;5.20;;;2.00;99.90;;;;;;5031417;28;20250;-60
2023/01/17 09:23:10;;;;;;;10.20;5.47;;;1.90;99.90;;;;;;5032106;28;20196;-59
2023/01/17 09:25:38;;;;;;;10.17;5.10;;;2.10;99.90;;;;;;5031740;28;20200;-60
2023/01/17 09:28:05;;;;;;;7.80;5.20;;;2.20;99.90;;;;;;5029822;28;20254;-59
2023/01/17 09:30:32;;;;;;;9.60;5.77;;;2.20;99.90;;;;;;5031132;28;20201;-59
2023/01/17 09:32:59;;;;;;;8.40;5.60;;;2.20;99.90;;;;;;5032533;28;20213;-59
2023/01/17 09:35:25;;;;;;;12.07;5.53;;;2.10;99.90;;;;;;5029961;28;20645;-59
2023/01/17 09:37:52;;;;;;;8.57;5.90;;;2.20;99.90;;;;;;5025067;28;20205;-61
2023/01/17 09:40:24;;;;;;;8.53;5.37;;;2.30;99.90;;;;;;5025135;28;20200;-59
2023/01/17 09:42:56;;;;;;;10.57;5.97;;;2.30;99.90;;;;;;5032304;28;20361;-59
2023/01/17 09:45:26;;;;;;;9.20;5.50;;;2.50;99.90;;;;;;5029608;28;20265;-60
2023/01/17 09:47:54;;;;;;;8.17;5.47;;;2.90;99.90;;;;;;5033130;28;20223;-60
2023/01/17 09:50:24;;;;;;;11.00;5.23;;;2.70;99.90;;;;;;5033965;28;20320;-59
2023/01/17 09:53:00;;;;;;;9.93;5.43;;;2.90;99.90;;;;;;5034574;28;20200;-60
2023/01/17 09:55:33;;;;;;;9.53;5.87;;;2.90;99.90;;;;;;5034773;28;20537;-59
2023/01/17 09:58:38;;;;;;;6.50;5.00;;;3.30;99.90;;;;;;5033224;28;20287;-59
2023/01/17 10:01:31;;;;;;;8.33;5.23;;;3.00;1.00;;;;;;5034883;28;20197;-63
2023/01/17 10:04:39;;;;;;;10.07;5.10;;;3.30;99.90;;;;;;5034225;28;20208;-60
2023/01/17 10:07:39;;;;;;;12.93;5.03;;;3.20;1.00;;;;;;5037063;28;20205;-59
2023/01/17 10:10:17;;;;;;;12.90;6.00;;;3.80;1.00;;;;;;5016480;28;20196;-59
2023/01/17 10:12:49;;;;;;;7.87;4.33;;;3.80;1.00;;;;;;5034180;28;20203;-59
2023/01/17 10:15:45;;;;;;;8.27;5.47;;;4.00;99.90;;;;;;5034063;28;20243;-59
2023/01/17 10:18:23;;;;;;;8.63;4.83;;;4.20;99.90;;;;;;5036059;28;20204;-59
2023/01/17 10:21:05;;;;;;;5.97;4.50;;;4.20;1.00;;;;;;5029419;28;20203;-59
2023/01/17 10:24:07;;;;;;;6.17;4.33;;;4.30;99.90;;;;;;5034475;28;20216;-59
2023/01/17 10:26:35;;;;;;;7.07;4.63;;;4.20;99.90;;;;;;5036254;28;20392;-60
2023/01/17 10:29:07;;;;;;;9.97;4.80;;;3.90;99.90;;;;;;5035171;28;20311;-61
2023/01/17 10:31:41;;;;;;;8.40;4.70;;;3.90;6.50;;;;;;5033399;28;20603;-61
2023/01/17 10:34:17;;;;;;;7.20;4.40;;;4.20;1.00;;;;;;5032199;28;20232;-59
2023/01/17 10:36:48;;;;;;;7.30;4.70;;;4.00;99.90;;;;;;5034526;28;20215;-60
2023/01/17 10:39:28;;;;;;;6.87;4.70;;;4.00;1.00;;;;;;5033066;28;20211;-59
2023/01/17 10:42:06;;;;;;;5.33;3.90;;;4.30;1.00;;;;;;5038250;28;20256;-58
2023/01/17 10:44:58;;;;;;;9.43;3.90;;;4.30;1.00;;;;;;5033338;28;20280;-59
2023/01/17 10:47:29;;;;;;;9.33;5.00;;;4.10;99.90;;;;;;5031965;28;20202;-60
2023/01/17 10:49:58;;;;;;;6.73;4.60;;;4.20;99.90;;;;;;5021670;28;20307;-60
2023/01/17 10:52:42;;;;;;;6.53;4.03;;;4.10;1.00;;;;;;5024765;28;20204;-60
2023/01/17 10:55:33;;;;;;;9.37;4.40;;;4.30;1.00;;;;;;5027768;28;20198;-60
2023/01/17 10:58:01;;;;;;;7.63;4.30;;;4.20;99.90;;;;;;5034244;28;20223;-60
2023/01/17 11:00:38;;;;;;;7.40;4.47;;;4.40;99.90;;;;;;5030796;28;20205;-61
2023/01/17 11:03:08;;;;;;;4.80;3.87;;;4.60;1.00;;;;;;5035261;28;20195;-59
2023/01/17 11:05:35;;;;;;;4.90;4.17;;;4.40;1.00;;;;;;5030718;28;20612;-60
2023/01/17 11:08:05;;;;;;;9.67;4.60;;;4.20;1.00;;;;;;5033325;28;20297;-60
2023/01/17 11:10:47;;;;;;;6.50;4.13;;;4.10;26.40;;;;;;5034471;28;20244;-60
2023/01/17 11:13:23;;;;;;;11.43;4.40;;;4.10;99.90;;;;;;5034394;28;20553;-59
2023/01/17 11:15:56;;;;;;;5.60;4.17;;;4.10;1.00;;;;;;5032298;28;20230;-62
2023/01/17 11:18:33;;;;;;;5.37;4.10;;;4.10;99.90;;;;;;5029826;28;20673;-60
2023/01/17 11:21:22;;;;;;;8.10;4.13;;;4.00;99.90;;;;;;5030554;28;20702;-60
2023/01/17 11:23:57;;;;;;;8.10;4.40;;;4.10;1.00;;;;;;5024928;28;21224;-59
2023/01/17 11:26:27;;;;;;;7.93;4.73;;;4.60;99.90;;;;;;5021435;28;20210;-58
2023/01/17 11:29:13;;;;;;;6.77;4.00;;;4.50;1.00;;;;;;5034804;28;20247;-60
2023/01/17 11:31:40;;;;;;;7.87;4.53;;;4.80;1.00;;;;;;5022556;28;20845;-59
2023/01/17 11:34:21;;;;;;;13.07;4.67;;;5.00;47.20;;;;;;5018179;28;20215;-59
2023/01/17 11:37:06;;;;;;;6.70;4.20;;;4.90;1.00;;;;;;5034765;28;20226;-59
2023/01/17 11:39:33;;;;;;;8.43;4.40;;;4.70;1.00;;;;;;5032914;28;20672;-59
2023/01/17 11:42:04;;;;;;;7.97;4.00;;;4.70;99.90;;;;;;5030127;28;20206;-60
2023/01/17 11:44:33;;;;;;;8.37;4.30;;;4.70;99.90;;;;;;5031220;28;20341;-60
2023/01/17 11:47:06;;;;;;;8.53;4.70;;;5.10;1.00;;;;;;5022960;28;20216;-60
2023/01/17 11:49:33;;;;;;;5.33;3.67;;;5.30;99.90;;;;;;5026726;28;20223;-60
2023/01/17 11:52:06;;;;;;;8.93;4.30;;;5.60;99.90;;;;;;5024466;28;20324;-60
2023/01/17 11:54:41;;;;;;;4.83;3.70;;;5.70;99.90;;;;;;5016903;28;20293;-59
2023/01/17 11:57:34;;;;;;;4.60;3.43;;;6.40;99.90;;;;;;5019239;28;20245;-62
2023/01/17 12:00:33;;;;;;;6.20;2.80;;;6.10;1.00;;;;;;5018046;28;20205;-62
2023/01/17 12:03:14;;;;;;;4.43;2.70;;;6.20;1.00;;;;;;5021078;28;20832;-61
2023/01/17 12:06:06;;;;;;;4.87;2.73;;;6.60;1.00;;;;;;5018135;28;20898;-65
2023/01/17 12:08:45;;;;;;;4.97;2.83;;;6.60;1.00;;;;;;5017009;28;20311;-60
2023/01/17 12:13:59;;;;;;;4.93;2.50;;;6.70;99.90;;;;;;5020792;28;20274;-61
2023/01/17 12:14:52;;;;;;;3.33;2.13;;;7.20;99.90;;;;;;5021296;28;20215;-60
2023/01/17 12:17:38;;;;;;;2.83;2.00;;;8.00;1.00;;;;;;5014518;28;20210;-60
2023/01/17 12:20:15;;;;;;;3.87;1.97;;;7.80;1.00;;;;;;5018821;28;20216;-61
2023/01/17 12:22:50;;;;;;;6.67;1.80;;;7.40;1.00;;;;;;5018881;28;20219;-61
2023/01/17 12:25:29;;;;;;;4.43;1.27;;;7.80;1.00;;;;;;5015743;28;20761;-61
2023/01/17 12:28:11;;;;;;;2.60;1.77;;;7.90;1.00;;;;;;5015033;28;20213;-61
2023/01/17 12:30:56;;;;;;;4.77;1.80;;;7.40;1.00;;;;;;5026419;28;20226;-61
2023/01/17 12:33:29;;;;;;;3.63;1.50;;;7.90;1.00;;;;;;5025123;28;20637;-61
2023/01/17 12:36:02;;;;;;;2.67;1.47;;;7.40;1.00;;;;;;5015918;28;20230;-63
2023/01/17 12:38:34;;;;;;;6.47;2.47;;;7.50;1.00;;;;;;5019382;28;20216;-61
2023/01/17 12:41:04;;;;;;;1.20;0.80;;;7.80;1.00;;;;;;5023265;28;20266;-61
2023/01/17 12:43:36;;;;;;;3.03;1.30;;;7.40;99.90;;;;;;5024662;28;20235;-61
2023/01/17 12:46:20;;;;;;;1.33;0.93;;;7.50;1.00;;;;;;5015759;28;20576;-60
2023/01/17 12:48:52;;;;;;;1.67;1.13;;;7.30;1.00;;;;;;5010698;28;20229;-61
2023/01/17 12:51:28;;;;;;;1.47;1.10;;;7.30;99.90;;;;;;5017033;28;20292;-60
2023/01/17 12:54:23;;;;;;;3.50;1.17;;;7.10;99.90;;;;;;5015601;28;20294;-62
2023/01/17 12:56:55;;;;;;;3.13;0.63;;;7.20;1.00;;;;;;5011178;28;20208;-63
2023/01/17 12:59:40;;;;;;;1.20;0.63;;;7.70;99.90;;;;;;5016035;28;20210;-61
2023/01/17 13:02:34;;;;;;;1.53;0.60;;;8.10;99.90;;;;;;5011944;28;20212;-62
2023/01/17 13:05:22;;;;;;;2.53;0.63;;;8.30;99.90;;;;;;5021019;28;20301;-62
2023/01/17 13:08:02;;;;;;;1.67;0.70;;;8.00;59.30;;;;;;5021222;28;20211;-62
2023/01/17 13:10:46;;;;;;;1.70;0.37;;;8.30;99.90;;;;;;5021439;28;20697;-62
2023/01/17 13:13:25;;;;;;;1.30;0.97;;;8.00;22.20;;;;;;5018262;28;20252;-66
2023/01/17 13:16:15;;;;;;;1.80;0.93;;;7.80;99.90;;;;;;5018145;28;20720;-64
2023/01/17 13:18:47;;;;;;;1.47;0.90;;;7.70;99.90;;;;;;5016492;28;20209;-62
2023/01/17 13:21:14;;;;;;;4.10;0.80;;;8.00;99.90;;;;;;5020033;28;20197;-62
2023/01/17 13:24:11;;;;;;;1.50;0.90;;;8.10;98.20;;;;;;5010364;28;20204;-60
2023/01/17 13:27:19;;;;;;;3.10;0.93;;;8.20;99.90;;;;;;5016685;28;20200;-68
2023/01/17 13:30:05;;;;;;;2.37;0.90;;;7.90;99.90;;;;;;5014480;28;20228;-61
2023/01/17 13:33:15;;;;;;;2.40;0.83;;;7.60;90.60;;;;;;5019096;28;20274;-60
2023/01/17 13:36:09;;;;;;;2.90;0.93;;;7.20;99.90;;;;;;4983108;28;20347;-60
2023/01/17 13:38:53;;;;;;;0.60;0.50;;;7.20;99.90;;;;;;5026759;28;20366;-63
2023/01/17 13:41:44;;;;;;;1.00;0.70;;;7.60;99.90;;;;;;5029190;28;20233;-61
2023/01/17 13:44:26;;;;;;;3.27;1.10;;;7.70;99.90;;;;;;5023961;28;20228;-63
2023/01/17 13:47:24;;;;;;;2.27;0.60;;;7.60;99.90;;;;;;5017725;28;20223;-60
2023/01/17 13:49:55;;;;;;;2.87;0.60;;;7.80;99.90;;;;;;5014689;28;20690;-60
2023/01/17 13:52:25;;;;;;;4.43;0.60;;;7.80;25.90;;;;;;5018537;28;20234;-60
2023/01/17 13:54:56;;;;;;;1.03;0.70;;;8.00;29.70;;;;;;5030617;28;20193;-60
2023/01/17 13:57:31;;;;;;;0.90;0.60;;;8.40;30.00;;;;;;5025105;28;20303;-62
2023/01/17 14:00:15;;;;;;;1.00;0.57;;;8.40;10.10;;;;;;5021494;28;20268;-61
2023/01/17 14:02:42;;;;;;;2.60;1.17;;;8.00;1.00;;;;;;5022239;28;20519;-58
2023/01/17 14:05:22;;;;;;;2.20;0.90;;;7.60;1.00;;;;;;5011239;28;20942;-59
2023/01/17 14:08:03;;;;;;;3.10;0.87;;;7.50;34.00;;;;;;5019363;28;20198;-58
2023/01/17 14:10:33;;;;;;;1.20;0.80;;;7.60;16.60;;;;;;5014438;28;20308;-60
2023/01/17 14:13:01;;;;;;;1.07;0.93;;;7.50;75.30;;;;;;5021923;28;20642;-60
2023/01/17 14:15:31;;;;;;;3.43;1.00;;;7.70;99.90;;;;;;5016613;28;20212;-60
2023/01/17 14:17:58;;;;;;;1.90;0.80;;;7.10;79.60;;;;;;5023336;28;20208;-60
2023/01/17 14:20:26;;;;;;;3.53;1.07;;;6.80;30.30;;;;;;5020603;28;20219;-61
2023/01/17 14:23:02;;;;;;;2.00;0.90;;;7.00;96.70;;;;;;5009761;28;20213;-61
2023/01/17 14:25:36;;;;;;;0.90;0.73;;;6.80;99.90;;;;;;5016215;28;20704;-60
2023/01/17 14:28:20;;;;;;;1.67;0.80;;;6.90;99.90;;;;;;5042486;28;20210;-61
2023/01/17 14:30:53;;;;;;;2.17;0.70;;;7.10;99.90;;;;;;5028046;28;20221;-60
2023/01/17 14:33:29;;;;;;;1.00;0.90;;;6.90;99.90;;;;;;5019659;28;20236;-59
2023/01/17 14:35:59;;;;;;;2.07;0.70;;;6.90;99.90;;;;;;5020927;28;20239;-61
2023/01/17 14:38:30;;;;;;;2.07;0.70;;;6.70;99.90;;;;;;5041111;28;20200;-61
2023/01/17 14:41:06;;;;;;;1.73;0.83;;;6.60;99.90;;;;;;5015400;28;20666;-60
2023/01/17 14:43:36;;;;;;;1.43;1.00;;;7.00;99.90;;;;;;5017504;28;20273;-60
2023/01/17 14:46:22;;;;;;;2.10;1.10;;;7.00;99.90;;;;;;5015126;28;20262;-60
2023/01/17 14:48:57;;;;;;;1.17;0.93;;;6.90;99.90;;;;;;5020785;28;20212;-60